sensor_id;sensor_type;location;lat;lon;timestamp;P1;durP1;ratioP1;P2;durP2;ratioP2
64873;SDS011;51367;45.204;38.576;2023-04-09T00:02:10;9.85;;;8.88;;
64873;SDS011;51367;45.204;38.576;2023-04-09T00:04:36;11.02;;;8.45;;
64873;SDS011;51367;45.204;38.576;2023-04-09T00:07:02;10.57;;;8.77;;
64873;SDS011;51367;45.204;38.576;2023-04-09T00:09:27;11.40;;;9.70;;
64873;SDS011;51367;45.204;38.576;2023-04-09T00:11:53;10.35;;;8.23;;
64873;SDS011;51367;45.204;38.576;2023-04-09T00:14:21;10.35;;;7.93;;
64873;SDS011;51367;45.204;38.576;2023-04-09T00:16:47;12.10;;;8.82;;
64873;SDS011;51367;45.204;38.576;2023-04-09T00:19:13;10.77;;;9.23;;
64873;SDS011;51367;45.204;38.576;2023-04-09T00:21:39;9.27;;;8.30;;
64873;SDS011;51367;45.204;38.576;2023-04-09T00:24:05;8.68;;;7.43;;
64873;SDS011;51367;45.204;38.576;2023-04-09T00:26:31;9.95;;;7.75;;
64873;SDS011;51367;45.204;38.576;2023-04-09T00:28:57;7.45;;;6.30;;
64873;SDS011;51367;45.204;38.576;2023-04-09T00:31:22;6.70;;;6.00;;
64873;SDS011;51367;45.204;38.576;2023-04-09T00:33:48;5.63;;;4.78;;
64873;SDS011;51367;45.204;38.576;2023-04-09T00:36:15;12.30;;;4.72;;
64873;SDS011;51367;45.204;38.576;2023-04-09T00:38:40;4.32;;;4.03;;
64873;SDS011;51367;45.204;38.576;2023-04-09T00:41:06;5.22;;;3.85;;
64873;SDS011;51367;45.204;38.576;2023-04-09T00:43:32;7.10;;;3.75;;
64873;SDS011;51367;45.204;38.576;2023-04-09T00:45:59;4.38;;;3.60;;
64873;SDS011;51367;45.204;38.576;2023-04-09T00:48:25;4.38;;;3.97;;
64873;SDS011;51367;45.204;38.576;2023-04-09T00:50:51;3.83;;;3.50;;
64873;SDS011;51367;45.204;38.576;2023-04-09T00:53:17;5.50;;;3.22;;
64873;SDS011;51367;45.204;38.576;2023-04-09T00:55:44;3.35;;;3.08;;
64873;SDS011;51367;45.204;38.576;2023-04-09T00:58:10;3.22;;;3.03;;
64873;SDS011;51367;45.204;38.576;2023-04-09T01:00:36;3.30;;;3.08;;
64873;SDS011;51367;45.204;38.576;2023-04-09T01:03:02;3.13;;;2.78;;
64873;SDS011;51367;45.204;38.576;2023-04-09T01:05:33;2.88;;;2.65;;
64873;SDS011;51367;45.204;38.576;2023-04-09T01:11:05;12.27;;;2.85;;
64873;SDS011;51367;45.204;38.576;2023-04-09T01:13:57;3.08;;;2.88;;
64873;SDS011;51367;45.204;38.576;2023-04-09T01:16:59;2.92;;;2.63;;
64873;SDS011;51367;45.204;38.576;2023-04-09T01:19:43;2.97;;;2.78;;
64873;SDS011;51367;45.204;38.576;2023-04-09T01:22:39;3.00;;;2.80;;
64873;SDS011;51367;45.204;38.576;2023-04-09T01:25:28;2.60;;;2.40;;
64873;SDS011;51367;45.204;38.576;2023-04-09T01:30:40;2.70;;;2.50;;
64873;SDS011;51367;45.204;38.576;2023-04-09T01:33:12;3.25;;;2.75;;
64873;SDS011;51367;45.204;38.576;2023-04-09T01:35:43;3.38;;;2.95;;
64873;SDS011;51367;45.204;38.576;2023-04-09T01:38:11;3.00;;;2.67;;
64873;SDS011;51367;45.204;38.576;2023-04-09T01:40:41;3.35;;;3.05;;
64873;SDS011;51367;45.204;38.576;2023-04-09T01:43:07;3.42;;;3.13;;
64873;SDS011;51367;45.204;38.576;2023-04-09T01:45:35;3.78;;;3.47;;
64873;SDS011;51367;45.204;38.576;2023-04-09T01:48:01;5.40;;;3.05;;
64873;SDS011;51367;45.204;38.576;2023-04-09T01:50:29;3.85;;;3.10;;
64873;SDS011;51367;45.204;38.576;2023-04-09T01:52:55;3.67;;;3.08;;
64873;SDS011;51367;45.204;38.576;2023-04-09T01:55:21;4.65;;;2.97;;
64873;SDS011;51367;45.204;38.576;2023-04-09T01:57:47;2.85;;;2.65;;
64873;SDS011;51367;45.204;38.576;2023-04-09T02:00:13;3.90;;;2.92;;
64873;SDS011;51367;45.204;38.576;2023-04-09T02:05:28;3.97;;;3.47;;
64873;SDS011;51367;45.204;38.576;2023-04-09T02:08:01;3.05;;;2.80;;
64873;SDS011;51367;45.204;38.576;2023-04-09T02:10:29;2.83;;;2.55;;
64873;SDS011;51367;45.204;38.576;2023-04-09T02:12:59;3.88;;;3.03;;
64873;SDS011;51367;45.204;38.576;2023-04-09T02:15:30;5.75;;;3.03;;
64873;SDS011;51367;45.204;38.576;2023-04-09T02:17:56;2.90;;;2.70;;
64873;SDS011;51367;45.204;38.576;2023-04-09T02:20:22;3.25;;;2.33;;
64873;SDS011;51367;45.204;38.576;2023-04-09T02:22:49;3.20;;;2.78;;
64873;SDS011;51367;45.204;38.576;2023-04-09T02:25:14;4.05;;;3.65;;
64873;SDS011;51367;45.204;38.576;2023-04-09T02:27:41;4.05;;;3.10;;
64873;SDS011;51367;45.204;38.576;2023-04-09T02:30:07;2.72;;;2.50;;
64873;SDS011;51367;45.204;38.576;2023-04-09T02:32:33;2.55;;;2.35;;
64873;SDS011;51367;45.204;38.576;2023-04-09T02:34:59;4.78;;;2.38;;
64873;SDS011;51367;45.204;38.576;2023-04-09T02:37:24;2.70;;;2.35;;
64873;SDS011;51367;45.204;38.576;2023-04-09T02:39:50;3.45;;;3.15;;
64873;SDS011;51367;45.204;38.576;2023-04-09T02:42:16;5.50;;;3.35;;
64873;SDS011;51367;45.204;38.576;2023-04-09T02:44:42;3.30;;;3.00;;
64873;SDS011;51367;45.204;38.576;2023-04-09T02:47:09;3.22;;;2.60;;
64873;SDS011;51367;45.204;38.576;2023-04-09T02:49:36;2.80;;;2.60;;
64873;SDS011;51367;45.204;38.576;2023-04-09T02:52:02;3.83;;;2.60;;
64873;SDS011;51367;45.204;38.576;2023-04-09T02:54:28;2.53;;;2.33;;
64873;SDS011;51367;45.204;38.576;2023-04-09T02:56:54;2.55;;;2.20;;
64873;SDS011;51367;45.204;38.576;2023-04-09T02:59:21;2.88;;;2.65;;
64873;SDS011;51367;45.204;38.576;2023-04-09T03:01:47;3.17;;;2.88;;
64873;SDS011;51367;45.204;38.576;2023-04-09T03:04:12;4.55;;;2.50;;
64873;SDS011;51367;45.204;38.576;2023-04-09T03:06:38;3.90;;;2.58;;
64873;SDS011;51367;45.204;38.576;2023-04-09T03:09:04;2.95;;;2.75;;
64873;SDS011;51367;45.204;38.576;2023-04-09T03:11:30;4.78;;;2.75;;
64873;SDS011;51367;45.204;38.576;2023-04-09T03:13:56;2.55;;;2.38;;
64873;SDS011;51367;45.204;38.576;2023-04-09T03:16:23;13.68;;;2.72;;
64873;SDS011;51367;45.204;38.576;2023-04-09T03:18:50;3.03;;;2.70;;
64873;SDS011;51367;45.204;38.576;2023-04-09T03:21:16;3.08;;;2.72;;
64873;SDS011;51367;45.204;38.576;2023-04-09T03:23:46;2.53;;;2.33;;
64873;SDS011;51367;45.204;38.576;2023-04-09T03:26:12;5.05;;;3.40;;
64873;SDS011;51367;45.204;38.576;2023-04-09T03:28:56;2.97;;;2.78;;
64873;SDS011;51367;45.204;38.576;2023-04-09T03:31:22;2.65;;;2.42;;
64873;SDS011;51367;45.204;38.576;2023-04-09T03:33:48;2.42;;;2.20;;
64873;SDS011;51367;45.204;38.576;2023-04-09T03:36:14;3.30;;;2.65;;
64873;SDS011;51367;45.204;38.576;2023-04-09T03:39:09;3.85;;;3.45;;
64873;SDS011;51367;45.204;38.576;2023-04-09T03:41:39;2.75;;;2.55;;
64873;SDS011;51367;45.204;38.576;2023-04-09T03:44:09;5.50;;;3.05;;
64873;SDS011;51367;45.204;38.576;2023-04-09T03:46:58;3.40;;;3.15;;
64873;SDS011;51367;45.204;38.576;2023-04-09T03:49:25;4.97;;;3.38;;
64873;SDS011;51367;45.204;38.576;2023-04-09T03:51:55;4.32;;;3.83;;
64873;SDS011;51367;45.204;38.576;2023-04-09T03:54:23;5.22;;;3.67;;
64873;SDS011;51367;45.204;38.576;2023-04-09T03:56:49;3.22;;;2.92;;
64873;SDS011;51367;45.204;38.576;2023-04-09T03:59:19;3.13;;;2.92;;
64873;SDS011;51367;45.204;38.576;2023-04-09T04:01:46;2.97;;;2.78;;
64873;SDS011;51367;45.204;38.576;2023-04-09T04:04:13;2.72;;;2.53;;
64873;SDS011;51367;45.204;38.576;2023-04-09T04:06:42;3.22;;;3.03;;
64873;SDS011;51367;45.204;38.576;2023-04-09T04:09:29;3.30;;;3.00;;
64873;SDS011;51367;45.204;38.576;2023-04-09T04:12:00;4.50;;;3.60;;
64873;SDS011;51367;45.204;38.576;2023-04-09T04:14:57;3.42;;;3.13;;
64873;SDS011;51367;45.204;38.576;2023-04-09T04:17:30;20.48;;;5.10;;
64873;SDS011;51367;45.204;38.576;2023-04-09T04:19:57;3.97;;;2.70;;
64873;SDS011;51367;45.204;38.576;2023-04-09T04:22:23;4.10;;;3.22;;
64873;SDS011;51367;45.204;38.576;2023-04-09T04:24:52;8.50;;;4.97;;
64873;SDS011;51367;45.204;38.576;2023-04-09T04:27:20;7.97;;;6.47;;
64873;SDS011;51367;45.204;38.576;2023-04-09T04:29:46;7.65;;;5.53;;
64873;SDS011;51367;45.204;38.576;2023-04-09T04:32:35;9.63;;;6.65;;
64873;SDS011;51367;45.204;38.576;2023-04-09T04:35:05;27.13;;;6.55;;
64873;SDS011;51367;45.204;38.576;2023-04-09T04:37:32;11.02;;;6.70;;
64873;SDS011;51367;45.204;38.576;2023-04-09T04:40:02;8.55;;;6.45;;
64873;SDS011;51367;45.204;38.576;2023-04-09T04:42:33;12.07;;;6.78;;
64873;SDS011;51367;45.204;38.576;2023-04-09T04:45:03;12.95;;;6.70;;
64873;SDS011;51367;45.204;38.576;2023-04-09T04:47:46;16.98;;;6.60;;
64873;SDS011;51367;45.204;38.576;2023-04-09T04:50:13;7.07;;;5.65;;
64873;SDS011;51367;45.204;38.576;2023-04-09T04:52:51;6.35;;;5.15;;
64873;SDS011;51367;45.204;38.576;2023-04-09T04:55:19;5.45;;;4.25;;
64873;SDS011;51367;45.204;38.576;2023-04-09T04:57:45;6.30;;;5.55;;
64873;SDS011;51367;45.204;38.576;2023-04-09T05:00:11;5.50;;;4.80;;
64873;SDS011;51367;45.204;38.576;2023-04-09T05:02:39;4.65;;;3.47;;
64873;SDS011;51367;45.204;38.576;2023-04-09T05:05:40;7.50;;;4.50;;
64873;SDS011;51367;45.204;38.576;2023-04-09T05:08:07;4.78;;;3.38;;
64873;SDS011;51367;45.204;38.576;2023-04-09T05:10:33;4.78;;;3.60;;
64873;SDS011;51367;45.204;38.576;2023-04-09T05:12:59;7.93;;;4.28;;
64873;SDS011;51367;45.204;38.576;2023-04-09T05:15:36;6.32;;;3.75;;
64873;SDS011;51367;45.204;38.576;2023-04-09T05:18:07;3.95;;;3.53;;
64873;SDS011;51367;45.204;38.576;2023-04-09T05:20:33;3.70;;;3.40;;
64873;SDS011;51367;45.204;38.576;2023-04-09T05:23:06;4.55;;;3.63;;
64873;SDS011;51367;45.204;38.576;2023-04-09T05:25:39;3.85;;;3.47;;
64873;SDS011;51367;45.204;38.576;2023-04-09T05:28:10;5.78;;;4.05;;
64873;SDS011;51367;45.204;38.576;2023-04-09T05:30:37;4.45;;;4.05;;
64873;SDS011;51367;45.204;38.576;2023-04-09T05:33:04;6.22;;;3.78;;
64873;SDS011;51367;45.204;38.576;2023-04-09T05:35:31;3.60;;;3.28;;
64873;SDS011;51367;45.204;38.576;2023-04-09T05:37:58;2.75;;;2.58;;
64873;SDS011;51367;45.204;38.576;2023-04-09T05:40:24;2.78;;;2.53;;
64873;SDS011;51367;45.204;38.576;2023-04-09T05:42:51;3.13;;;2.83;;
64873;SDS011;51367;45.204;38.576;2023-04-09T05:45:36;5.28;;;3.67;;
64873;SDS011;51367;45.204;38.576;2023-04-09T05:48:02;2.72;;;2.20;;
64873;SDS011;51367;45.204;38.576;2023-04-09T05:50:28;2.55;;;2.35;;
64873;SDS011;51367;45.204;38.576;2023-04-09T05:52:54;5.32;;;2.30;;
64873;SDS011;51367;45.204;38.576;2023-04-09T05:55:26;2.38;;;2.10;;
64873;SDS011;51367;45.204;38.576;2023-04-09T05:57:57;3.83;;;2.22;;
64873;SDS011;51367;45.204;38.576;2023-04-09T06:00:23;1.70;;;1.60;;
64873;SDS011;51367;45.204;38.576;2023-04-09T06:02:49;2.13;;;2.03;;
64873;SDS011;51367;45.204;38.576;2023-04-09T06:05:15;2.60;;;1.90;;
64873;SDS011;51367;45.204;38.576;2023-04-09T06:07:41;2.10;;;1.80;;
64873;SDS011;51367;45.204;38.576;2023-04-09T06:10:07;2.35;;;1.92;;
64873;SDS011;51367;45.204;38.576;2023-04-09T06:12:34;3.30;;;2.25;;
64873;SDS011;51367;45.204;38.576;2023-04-09T06:15:02;1.65;;;1.55;;
64873;SDS011;51367;45.204;38.576;2023-04-09T06:17:29;1.92;;;1.83;;
64873;SDS011;51367;45.204;38.576;2023-04-09T06:19:55;2.42;;;1.70;;
64873;SDS011;51367;45.204;38.576;2023-04-09T06:22:21;2.08;;;1.98;;
64873;SDS011;51367;45.204;38.576;2023-04-09T06:24:47;1.70;;;1.60;;
64873;SDS011;51367;45.204;38.576;2023-04-09T06:27:13;1.80;;;1.70;;
64873;SDS011;51367;45.204;38.576;2023-04-09T06:29:39;2.55;;;1.80;;
64873;SDS011;51367;45.204;38.576;2023-04-09T06:32:05;1.75;;;1.63;;
64873;SDS011;51367;45.204;38.576;2023-04-09T06:34:30;1.90;;;1.70;;
64873;SDS011;51367;45.204;38.576;2023-04-09T06:36:56;1.50;;;1.40;;
64873;SDS011;51367;45.204;38.576;2023-04-09T06:39:22;1.95;;;1.80;;
64873;SDS011;51367;45.204;38.576;2023-04-09T06:41:48;1.63;;;1.52;;
64873;SDS011;51367;45.204;38.576;2023-04-09T06:44:37;1.98;;;1.60;;
64873;SDS011;51367;45.204;38.576;2023-04-09T06:47:03;1.75;;;1.65;;
64873;SDS011;51367;45.204;38.576;2023-04-09T06:49:29;2.03;;;1.73;;
64873;SDS011;51367;45.204;38.576;2023-04-09T06:51:55;1.08;;;1.08;;
64873;SDS011;51367;45.204;38.576;2023-04-09T06:54:21;1.85;;;1.35;;
64873;SDS011;51367;45.204;38.576;2023-04-09T06:56:47;1.88;;;1.50;;
64873;SDS011;51367;45.204;38.576;2023-04-09T06:59:13;5.95;;;1.95;;
64873;SDS011;51367;45.204;38.576;2023-04-09T07:01:41;4.20;;;1.80;;
64873;SDS011;51367;45.204;38.576;2023-04-09T07:04:07;1.45;;;1.33;;
64873;SDS011;51367;45.204;38.576;2023-04-09T07:06:33;3.55;;;1.80;;
64873;SDS011;51367;45.204;38.576;2023-04-09T07:08:59;1.95;;;1.70;;
64873;SDS011;51367;45.204;38.576;2023-04-09T07:11:25;5.45;;;1.65;;
64873;SDS011;51367;45.204;38.576;2023-04-09T07:13:51;1.90;;;1.80;;
64873;SDS011;51367;45.204;38.576;2023-04-09T07:16:17;2.42;;;1.90;;
64873;SDS011;51367;45.204;38.576;2023-04-09T07:18:43;2.08;;;1.55;;
64873;SDS011;51367;45.204;38.576;2023-04-09T07:21:09;1.92;;;1.73;;
64873;SDS011;51367;45.204;38.576;2023-04-09T07:23:35;5.07;;;1.80;;
64873;SDS011;51367;45.204;38.576;2023-04-09T07:26:04;1.98;;;1.70;;
64873;SDS011;51367;45.204;38.576;2023-04-09T07:28:31;2.22;;;1.42;;
64873;SDS011;51367;45.204;38.576;2023-04-09T07:30:59;1.27;;;1.02;;
64873;SDS011;51367;45.204;38.576;2023-04-09T07:33:28;1.52;;;1.42;;
64873;SDS011;51367;45.204;38.576;2023-04-09T07:35:54;1.40;;;1.30;;
64873;SDS011;51367;45.204;38.576;2023-04-09T07:38:21;1.25;;;1.15;;
64873;SDS011;51367;45.204;38.576;2023-04-09T07:40:47;1.85;;;1.30;;
64873;SDS011;51367;45.204;38.576;2023-04-09T07:43:12;1.67;;;1.58;;
64873;SDS011;51367;45.204;38.576;2023-04-09T07:45:38;1.73;;;1.63;;
64873;SDS011;51367;45.204;38.576;2023-04-09T07:48:04;4.38;;;1.60;;
64873;SDS011;51367;45.204;38.576;2023-04-09T07:50:33;1.88;;;1.20;;
64873;SDS011;51367;45.204;38.576;2023-04-09T07:52:59;1.58;;;1.48;;
64873;SDS011;51367;45.204;38.576;2023-04-09T07:55:25;1.50;;;1.33;;
64873;SDS011;51367;45.204;38.576;2023-04-09T07:57:50;1.73;;;1.63;;
64873;SDS011;51367;45.204;38.576;2023-04-09T08:00:17;2.30;;;2.10;;
64873;SDS011;51367;45.204;38.576;2023-04-09T08:02:43;2.35;;;1.90;;
64873;SDS011;51367;45.204;38.576;2023-04-09T08:05:09;5.25;;;1.75;;
64873;SDS011;51367;45.204;38.576;2023-04-09T08:07:35;1.77;;;1.63;;
64873;SDS011;51367;45.204;38.576;2023-04-09T08:10:01;1.65;;;1.55;;
64873;SDS011;51367;45.204;38.576;2023-04-09T08:12:27;2.40;;;1.63;;
64873;SDS011;51367;45.204;38.576;2023-04-09T08:14:53;1.52;;;1.42;;
64873;SDS011;51367;45.204;38.576;2023-04-09T08:17:19;2.75;;;1.83;;
64873;SDS011;51367;45.204;38.576;2023-04-09T08:19:46;2.03;;;1.92;;
64873;SDS011;51367;45.204;38.576;2023-04-09T08:22:13;5.72;;;2.92;;
64873;SDS011;51367;45.204;38.576;2023-04-09T08:24:40;0.85;;;0.80;;
64873;SDS011;51367;45.204;38.576;2023-04-09T08:27:08;1.33;;;1.23;;
64873;SDS011;51367;45.204;38.576;2023-04-09T08:29:34;2.05;;;1.70;;
64873;SDS011;51367;45.204;38.576;2023-04-09T08:32:00;1.35;;;1.25;;
64873;SDS011;51367;45.204;38.576;2023-04-09T08:34:26;1.77;;;1.67;;
64873;SDS011;51367;45.204;38.576;2023-04-09T08:36:52;1.23;;;1.23;;
64873;SDS011;51367;45.204;38.576;2023-04-09T08:39:18;2.35;;;1.88;;
64873;SDS011;51367;45.204;38.576;2023-04-09T08:41:45;1.40;;;1.30;;
64873;SDS011;51367;45.204;38.576;2023-04-09T08:44:12;1.55;;;1.45;;
64873;SDS011;51367;45.204;38.576;2023-04-09T08:46:38;1.90;;;1.80;;
64873;SDS011;51367;45.204;38.576;2023-04-09T08:49:04;1.70;;;1.58;;
64873;SDS011;51367;45.204;38.576;2023-04-09T08:51:32;1.83;;;1.73;;
64873;SDS011;51367;45.204;38.576;2023-04-09T08:53:59;1.80;;;1.70;;
64873;SDS011;51367;45.204;38.576;2023-04-09T08:56:26;2.08;;;1.80;;
64873;SDS011;51367;45.204;38.576;2023-04-09T08:58:53;1.48;;;1.38;;
64873;SDS011;51367;45.204;38.576;2023-04-09T09:03:59;2.28;;;2.00;;
64873;SDS011;51367;45.204;38.576;2023-04-09T09:09:26;1.60;;;1.50;;
64873;SDS011;51367;45.204;38.576;2023-04-09T09:11:46;1.38;;;1.27;;
64873;SDS011;51367;45.204;38.576;2023-04-09T09:14:15;2.15;;;1.65;;
64873;SDS011;51367;45.204;38.576;2023-04-09T09:17:01;1.38;;;1.33;;
64873;SDS011;51367;45.204;38.576;2023-04-09T09:19:30;1.17;;;1.15;;
64873;SDS011;51367;45.204;38.576;2023-04-09T09:22:01;2.83;;;1.48;;
64873;SDS011;51367;45.204;38.576;2023-04-09T09:24:30;2.80;;;1.77;;
64873;SDS011;51367;45.204;38.576;2023-04-09T09:26:58;1.30;;;1.20;;
64873;SDS011;51367;45.204;38.576;2023-04-09T09:29:25;7.95;;;1.67;;
64873;SDS011;51367;45.204;38.576;2023-04-09T09:31:53;4.15;;;1.60;;
64873;SDS011;51367;45.204;38.576;2023-04-09T09:34:20;1.50;;;1.40;;
64873;SDS011;51367;45.204;38.576;2023-04-09T09:36:47;1.23;;;1.23;;
64873;SDS011;51367;45.204;38.576;2023-04-09T09:39:13;1.77;;;1.67;;
64873;SDS011;51367;45.204;38.576;2023-04-09T09:41:41;0.90;;;0.90;;
64873;SDS011;51367;45.204;38.576;2023-04-09T09:44:09;2.17;;;1.23;;
64873;SDS011;51367;45.204;38.576;2023-04-09T09:46:37;1.60;;;1.50;;
64873;SDS011;51367;45.204;38.576;2023-04-09T09:49:05;1.52;;;1.30;;
64873;SDS011;51367;45.204;38.576;2023-04-09T09:51:32;1.50;;;1.40;;
64873;SDS011;51367;45.204;38.576;2023-04-09T09:54:01;2.97;;;1.70;;
64873;SDS011;51367;45.204;38.576;2023-04-09T09:56:31;1.23;;;1.15;;
64873;SDS011;51367;45.204;38.576;2023-04-09T09:59:06;2.67;;;1.17;;
64873;SDS011;51367;45.204;38.576;2023-04-09T10:01:40;1.50;;;1.40;;
64873;SDS011;51367;45.204;38.576;2023-04-09T10:04:07;0.95;;;0.95;;
64873;SDS011;51367;45.204;38.576;2023-04-09T10:06:39;2.28;;;1.10;;
64873;SDS011;51367;45.204;38.576;2023-04-09T10:09:09;1.65;;;1.27;;
64873;SDS011;51367;45.204;38.576;2023-04-09T10:11:36;1.33;;;1.23;;
64873;SDS011;51367;45.204;38.576;2023-04-09T10:14:03;1.38;;;1.25;;
64873;SDS011;51367;45.204;38.576;2023-04-09T10:16:32;2.25;;;1.50;;
64873;SDS011;51367;45.204;38.576;2023-04-09T10:18:59;1.10;;;1.10;;
64873;SDS011;51367;45.204;38.576;2023-04-09T10:24:17;1.00;;;1.00;;
64873;SDS011;51367;45.204;38.576;2023-04-09T10:26:43;2.83;;;1.27;;
64873;SDS011;51367;45.204;38.576;2023-04-09T10:29:11;1.50;;;1.00;;
64873;SDS011;51367;45.204;38.576;2023-04-09T10:34:12;1.25;;;1.15;;
64873;SDS011;51367;45.204;38.576;2023-04-09T10:36:43;0.65;;;0.65;;
64873;SDS011;51367;45.204;38.576;2023-04-09T10:39:11;5.05;;;1.40;;
64873;SDS011;51367;45.204;38.576;2023-04-09T10:41:38;1.20;;;1.13;;
64873;SDS011;51367;45.204;38.576;2023-04-09T10:44:05;1.60;;;1.45;;
64873;SDS011;51367;45.204;38.576;2023-04-09T10:46:34;0.80;;;0.80;;
64873;SDS011;51367;45.204;38.576;2023-04-09T10:49:17;2.88;;;1.20;;
64873;SDS011;51367;45.204;38.576;2023-04-09T10:52:01;9.55;;;1.05;;
64873;SDS011;51367;45.204;38.576;2023-04-09T10:57:11;2.42;;;1.40;;
64873;SDS011;51367;45.204;38.576;2023-04-09T10:59:44;1.48;;;1.38;;
64873;SDS011;51367;45.204;38.576;2023-04-09T11:02:25;1.42;;;1.10;;
64873;SDS011;51367;45.204;38.576;2023-04-09T11:07:39;1.08;;;1.08;;
64873;SDS011;51367;45.204;38.576;2023-04-09T11:10:08;1.40;;;1.30;;
64873;SDS011;51367;45.204;38.576;2023-04-09T11:12:34;1.40;;;1.30;;
64873;SDS011;51367;45.204;38.576;2023-04-09T11:15:00;1.00;;;0.98;;
64873;SDS011;51367;45.204;38.576;2023-04-09T11:17:26;1.15;;;1.05;;
64873;SDS011;51367;45.204;38.576;2023-04-09T11:19:52;1.20;;;1.17;;
64873;SDS011;51367;45.204;38.576;2023-04-09T11:22:19;1.52;;;1.38;;
64873;SDS011;51367;45.204;38.576;2023-04-09T11:24:45;1.88;;;1.27;;
64873;SDS011;51367;45.204;38.576;2023-04-09T11:27:11;1.25;;;1.17;;
64873;SDS011;51367;45.204;38.576;2023-04-09T11:29:37;1.30;;;1.05;;
64873;SDS011;51367;45.204;38.576;2023-04-09T11:32:03;1.13;;;1.05;;
64873;SDS011;51367;45.204;38.576;2023-04-09T11:34:30;1.27;;;1.17;;
64873;SDS011;51367;45.204;38.576;2023-04-09T11:36:56;0.47;;;0.47;;
64873;SDS011;51367;45.204;38.576;2023-04-09T11:39:27;1.63;;;1.40;;
64873;SDS011;51367;45.204;38.576;2023-04-09T11:41:53;0.68;;;0.68;;
64873;SDS011;51367;45.204;38.576;2023-04-09T11:44:19;0.98;;;0.95;;
64873;SDS011;51367;45.204;38.576;2023-04-09T11:46:46;1.58;;;1.48;;
64873;SDS011;51367;45.204;38.576;2023-04-09T11:49:14;2.83;;;1.33;;
64873;SDS011;51367;45.204;38.576;2023-04-09T11:51:41;1.85;;;1.75;;
64873;SDS011;51367;45.204;38.576;2023-04-09T11:54:07;2.97;;;0.98;;
64873;SDS011;51367;45.204;38.576;2023-04-09T11:56:34;1.35;;;1.25;;
64873;SDS011;51367;45.204;38.576;2023-04-09T11:59:01;1.38;;;0.93;;
64873;SDS011;51367;45.204;38.576;2023-04-09T12:01:31;1.70;;;1.60;;
64873;SDS011;51367;45.204;38.576;2023-04-09T12:03:58;3.15;;;1.58;;
64873;SDS011;51367;45.204;38.576;2023-04-09T12:06:25;4.18;;;1.50;;
64873;SDS011;51367;45.204;38.576;2023-04-09T12:08:55;1.08;;;1.08;;
64873;SDS011;51367;45.204;38.576;2023-04-09T12:11:29;0.75;;;0.75;;
64873;SDS011;51367;45.204;38.576;2023-04-09T12:14:00;2.08;;;1.15;;
64873;SDS011;51367;45.204;38.576;2023-04-09T12:16:29;1.10;;;1.00;;
64873;SDS011;51367;45.204;38.576;2023-04-09T12:19:02;0.82;;;0.82;;
64873;SDS011;51367;45.204;38.576;2023-04-09T12:21:47;0.60;;;0.60;;
64873;SDS011;51367;45.204;38.576;2023-04-09T12:24:23;1.30;;;1.20;;
64873;SDS011;51367;45.204;38.576;2023-04-09T12:26:50;2.15;;;1.42;;
64873;SDS011;51367;45.204;38.576;2023-04-09T12:29:17;6.95;;;1.08;;
64873;SDS011;51367;45.204;38.576;2023-04-09T12:31:44;1.10;;;1.00;;
64873;SDS011;51367;45.204;38.576;2023-04-09T12:34:11;1.00;;;1.00;;
64873;SDS011;51367;45.204;38.576;2023-04-09T12:36:37;1.60;;;1.48;;
64873;SDS011;51367;45.204;38.576;2023-04-09T12:39:05;1.33;;;1.23;;
64873;SDS011;51367;45.204;38.576;2023-04-09T12:41:33;1.63;;;1.35;;
64873;SDS011;51367;45.204;38.576;2023-04-09T12:43:58;1.10;;;1.08;;
64873;SDS011;51367;45.204;38.576;2023-04-09T12:46:24;1.75;;;1.40;;
64873;SDS011;51367;45.204;38.576;2023-04-09T12:48:52;0.88;;;0.88;;
64873;SDS011;51367;45.204;38.576;2023-04-09T12:51:18;1.45;;;1.35;;
64873;SDS011;51367;45.204;38.576;2023-04-09T12:53:44;1.17;;;1.17;;
64873;SDS011;51367;45.204;38.576;2023-04-09T12:56:10;1.33;;;1.05;;
64873;SDS011;51367;45.204;38.576;2023-04-09T12:58:36;1.40;;;1.30;;
64873;SDS011;51367;45.204;38.576;2023-04-09T13:01:02;0.80;;;0.80;;
64873;SDS011;51367;45.204;38.576;2023-04-09T13:03:28;1.13;;;1.02;;
64873;SDS011;51367;45.204;38.576;2023-04-09T13:05:55;1.35;;;1.17;;
64873;SDS011;51367;45.204;38.576;2023-04-09T13:08:20;1.50;;;1.33;;
64873;SDS011;51367;45.204;38.576;2023-04-09T13:10:46;1.33;;;1.23;;
64873;SDS011;51367;45.204;38.576;2023-04-09T13:13:12;1.60;;;1.50;;
64873;SDS011;51367;45.204;38.576;2023-04-09T13:15:39;2.88;;;1.70;;
64873;SDS011;51367;45.204;38.576;2023-04-09T13:18:08;1.42;;;1.33;;
64873;SDS011;51367;45.204;38.576;2023-04-09T13:20:34;1.42;;;1.08;;
64873;SDS011;51367;45.204;38.576;2023-04-09T13:23:01;1.23;;;1.13;;
64873;SDS011;51367;45.204;38.576;2023-04-09T13:25:27;2.65;;;1.67;;
64873;SDS011;51367;45.204;38.576;2023-04-09T13:27:53;1.58;;;1.48;;
64873;SDS011;51367;45.204;38.576;2023-04-09T13:30:20;1.75;;;1.60;;
64873;SDS011;51367;45.204;38.576;2023-04-09T13:32:46;1.65;;;1.45;;
64873;SDS011;51367;45.204;38.576;2023-04-09T13:35:12;1.42;;;1.33;;
64873;SDS011;51367;45.204;38.576;2023-04-09T13:37:38;2.13;;;1.15;;
64873;SDS011;51367;45.204;38.576;2023-04-09T13:40:05;1.20;;;1.20;;
64873;SDS011;51367;45.204;38.576;2023-04-09T13:42:33;1.95;;;1.75;;
64873;SDS011;51367;45.204;38.576;2023-04-09T13:45:02;2.28;;;1.83;;
64873;SDS011;51367;45.204;38.576;2023-04-09T13:47:28;3.45;;;2.15;;
64873;SDS011;51367;45.204;38.576;2023-04-09T13:49:54;1.73;;;1.50;;
64873;SDS011;51367;45.204;38.576;2023-04-09T13:52:20;1.88;;;1.77;;
64873;SDS011;51367;45.204;38.576;2023-04-09T13:54:46;1.92;;;1.80;;
64873;SDS011;51367;45.204;38.576;2023-04-09T13:57:13;2.60;;;2.40;;
64873;SDS011;51367;45.204;38.576;2023-04-09T13:59:39;2.97;;;2.75;;
64873;SDS011;51367;45.204;38.576;2023-04-09T14:02:07;3.17;;;2.13;;
64873;SDS011;51367;45.204;38.576;2023-04-09T14:04:33;7.30;;;5.72;;
64873;SDS011;51367;45.204;38.576;2023-04-09T14:06:59;3.55;;;3.17;;
64873;SDS011;51367;45.204;38.576;2023-04-09T14:09:25;11.35;;;7.55;;
64873;SDS011;51367;45.204;38.576;2023-04-09T14:11:51;13.40;;;4.13;;
64873;SDS011;51367;45.204;38.576;2023-04-09T14:14:19;5.30;;;4.10;;
64873;SDS011;51367;45.204;38.576;2023-04-09T14:16:45;6.68;;;5.28;;
64873;SDS011;51367;45.204;38.576;2023-04-09T14:19:11;7.55;;;4.30;;
64873;SDS011;51367;45.204;38.576;2023-04-09T14:21:37;5.15;;;4.63;;
64873;SDS011;51367;45.204;38.576;2023-04-09T14:24:03;6.20;;;3.40;;
64873;SDS011;51367;45.204;38.576;2023-04-09T14:26:30;3.90;;;3.35;;
64873;SDS011;51367;45.204;38.576;2023-04-09T14:28:56;10.68;;;5.88;;
64873;SDS011;51367;45.204;38.576;2023-04-09T14:31:22;15.18;;;4.07;;
64873;SDS011;51367;45.204;38.576;2023-04-09T14:33:48;10.13;;;5.55;;
64873;SDS011;51367;45.204;38.576;2023-04-09T14:36:13;4.93;;;4.45;;
64873;SDS011;51367;45.204;38.576;2023-04-09T14:38:40;3.47;;;3.17;;
64873;SDS011;51367;45.204;38.576;2023-04-09T14:41:05;4.53;;;3.70;;
64873;SDS011;51367;45.204;38.576;2023-04-09T14:43:31;13.60;;;5.53;;
64873;SDS011;51367;45.204;38.576;2023-04-09T14:45:57;5.78;;;4.28;;
64873;SDS011;51367;45.204;38.576;2023-04-09T14:48:23;3.85;;;3.45;;
64873;SDS011;51367;45.204;38.576;2023-04-09T14:50:49;6.45;;;4.53;;
64873;SDS011;51367;45.204;38.576;2023-04-09T14:53:16;5.47;;;4.97;;
64873;SDS011;51367;45.204;38.576;2023-04-09T14:55:42;8.10;;;6.15;;
64873;SDS011;51367;45.204;38.576;2023-04-09T14:58:08;8.50;;;5.63;;
64873;SDS011;51367;45.204;38.576;2023-04-09T15:00:34;6.10;;;3.10;;
64873;SDS011;51367;45.204;38.576;2023-04-09T15:03:00;3.50;;;3.20;;
64873;SDS011;51367;45.204;38.576;2023-04-09T15:05:26;7.13;;;4.38;;